Terminal Aerodrome Forecast
Issued by NWS Portland, OR

Home | Current Version | Previous Version | Text Only | Print | Product List | Glossary On
Versions: 1 2 3 4 5 6 7 8 9 10 11 12 13 14 15 16 17 18 19 20 21 22 23 24 25 26 27 28
000
FTUS46 KPQR 260520
TAFSLE
TAF
KSLE 260520Z 2606/2706 17004KT P6SM FEW040 SCT080 BKN200
     FM261200 16005KT P6SM VCSH BKN040 OVC080
     FM261500 17008KT P6SM -RA SCT025 OVC040
     FM262200 18010KT P6SM -SHRA BKN025 OVC040
     FM270100 19008KT P6SM -SHRA SCT025 BKN040=

USA.gov is the U.S. government's official web portal to all federal, state and local government web resources and services.